sensor_id;sensor_type;location;lat;lon;timestamp;P1;durP1;ratioP1;P2;durP2;ratioP2
8317;SDS011;4196;48.926;8.964;2023-07-20T00:02:37;3.23;;;2.07;;
8317;SDS011;4196;48.926;8.964;2023-07-20T00:05:23;3.40;;;2.03;;
8317;SDS011;4196;48.926;8.964;2023-07-20T00:08:10;2.23;;;1.77;;
8317;SDS011;4196;48.926;8.964;2023-07-20T00:10:57;4.70;;;1.93;;
8317;SDS011;4196;48.926;8.964;2023-07-20T00:13:43;3.13;;;1.70;;
8317;SDS011;4196;48.926;8.964;2023-07-20T00:16:30;1.73;;;1.43;;
8317;SDS011;4196;48.926;8.964;2023-07-20T00:19:16;3.03;;;1.90;;
8317;SDS011;4196;48.926;8.964;2023-07-20T00:22:03;4.63;;;1.60;;
8317;SDS011;4196;48.926;8.964;2023-07-20T00:24:50;1.73;;;1.47;;
8317;SDS011;4196;48.926;8.964;2023-07-20T00:27:37;1.80;;;1.70;;
8317;SDS011;4196;48.926;8.964;2023-07-20T00:30:23;3.27;;;1.83;;
8317;SDS011;4196;48.926;8.964;2023-07-20T00:33:10;4.30;;;1.90;;
8317;SDS011;4196;48.926;8.964;2023-07-20T00:35:58;2.17;;;1.90;;
8317;SDS011;4196;48.926;8.964;2023-07-20T00:38:44;2.77;;;1.50;;
8317;SDS011;4196;48.926;8.964;2023-07-20T00:41:31;3.27;;;1.70;;
8317;SDS011;4196;48.926;8.964;2023-07-20T00:44:18;2.93;;;1.70;;
8317;SDS011;4196;48.926;8.964;2023-07-20T00:47:05;3.13;;;1.60;;
8317;SDS011;4196;48.926;8.964;2023-07-20T00:49:52;1.90;;;1.47;;
8317;SDS011;4196;48.926;8.964;2023-07-20T00:52:39;2.47;;;1.30;;
8317;SDS011;4196;48.926;8.964;2023-07-20T00:55:25;5.87;;;1.90;;
8317;SDS011;4196;48.926;8.964;2023-07-20T00:58:13;3.43;;;1.90;;
8317;SDS011;4196;48.926;8.964;2023-07-20T01:00:59;3.70;;;1.60;;
8317;SDS011;4196;48.926;8.964;2023-07-20T01:03:45;1.80;;;1.57;;
8317;SDS011;4196;48.926;8.964;2023-07-20T01:06:37;3.37;;;1.57;;
8317;SDS011;4196;48.926;8.964;2023-07-20T01:09:38;1.50;;;1.40;;
8317;SDS011;4196;48.926;8.964;2023-07-20T01:12:32;1.70;;;1.50;;
8317;SDS011;4196;48.926;8.964;2023-07-20T01:15:26;1.70;;;1.47;;
8317;SDS011;4196;48.926;8.964;2023-07-20T01:18:13;2.97;;;1.83;;
8317;SDS011;4196;48.926;8.964;2023-07-20T01:21:01;2.50;;;1.67;;
8317;SDS011;4196;48.926;8.964;2023-07-20T01:24:01;1.70;;;1.50;;
8317;SDS011;4196;48.926;8.964;2023-07-20T01:33:19;4.17;;;1.73;;
8317;SDS011;4196;48.926;8.964;2023-07-20T01:36:07;2.63;;;1.80;;
8317;SDS011;4196;48.926;8.964;2023-07-20T01:38:54;3.13;;;1.80;;
8317;SDS011;4196;48.926;8.964;2023-07-20T01:41:42;4.40;;;1.50;;
8317;SDS011;4196;48.926;8.964;2023-07-20T01:44:29;2.07;;;1.70;;
8317;SDS011;4196;48.926;8.964;2023-07-20T01:47:15;2.20;;;1.77;;
8317;SDS011;4196;48.926;8.964;2023-07-20T01:50:01;3.77;;;1.67;;
8317;SDS011;4196;48.926;8.964;2023-07-20T01:52:48;3.07;;;1.77;;
8317;SDS011;4196;48.926;8.964;2023-07-20T01:55:35;3.70;;;1.77;;
8317;SDS011;4196;48.926;8.964;2023-07-20T01:58:21;2.30;;;1.70;;
8317;SDS011;4196;48.926;8.964;2023-07-20T02:01:07;2.30;;;1.40;;
8317;SDS011;4196;48.926;8.964;2023-07-20T02:03:54;2.77;;;1.60;;
8317;SDS011;4196;48.926;8.964;2023-07-20T02:06:41;2.57;;;1.63;;
8317;SDS011;4196;48.926;8.964;2023-07-20T02:09:27;2.47;;;1.70;;
8317;SDS011;4196;48.926;8.964;2023-07-20T02:12:13;2.57;;;1.90;;
8317;SDS011;4196;48.926;8.964;2023-07-20T02:14:59;2.03;;;1.70;;
8317;SDS011;4196;48.926;8.964;2023-07-20T02:17:45;3.17;;;1.70;;
8317;SDS011;4196;48.926;8.964;2023-07-20T02:20:32;1.80;;;1.60;;
8317;SDS011;4196;48.926;8.964;2023-07-20T02:23:18;3.13;;;1.87;;
8317;SDS011;4196;48.926;8.964;2023-07-20T02:26:05;2.27;;;1.80;;
8317;SDS011;4196;48.926;8.964;2023-07-20T02:28:51;11.07;;;1.80;;
8317;SDS011;4196;48.926;8.964;2023-07-20T02:31:37;3.63;;;1.97;;
8317;SDS011;4196;48.926;8.964;2023-07-20T02:34:25;3.67;;;2.20;;
8317;SDS011;4196;48.926;8.964;2023-07-20T02:37:12;2.10;;;1.90;;
8317;SDS011;4196;48.926;8.964;2023-07-20T02:39:59;3.27;;;2.00;;
8317;SDS011;4196;48.926;8.964;2023-07-20T02:42:46;5.03;;;2.17;;
8317;SDS011;4196;48.926;8.964;2023-07-20T02:45:32;4.20;;;2.10;;
8317;SDS011;4196;48.926;8.964;2023-07-20T02:48:19;4.30;;;1.90;;
8317;SDS011;4196;48.926;8.964;2023-07-20T02:51:06;2.07;;;1.77;;
8317;SDS011;4196;48.926;8.964;2023-07-20T02:53:53;2.00;;;1.77;;
8317;SDS011;4196;48.926;8.964;2023-07-20T02:56:39;2.43;;;1.80;;
8317;SDS011;4196;48.926;8.964;2023-07-20T02:59:26;3.70;;;1.87;;
8317;SDS011;4196;48.926;8.964;2023-07-20T03:02:12;4.20;;;2.47;;
8317;SDS011;4196;48.926;8.964;2023-07-20T03:04:59;2.93;;;1.70;;
8317;SDS011;4196;48.926;8.964;2023-07-20T03:07:48;2.10;;;1.80;;
8317;SDS011;4196;48.926;8.964;2023-07-20T03:10:39;4.43;;;1.93;;
8317;SDS011;4196;48.926;8.964;2023-07-20T03:13:28;2.90;;;1.87;;
8317;SDS011;4196;48.926;8.964;2023-07-20T03:16:18;2.40;;;1.70;;
8317;SDS011;4196;48.926;8.964;2023-07-20T03:19:06;2.50;;;2.13;;
8317;SDS011;4196;48.926;8.964;2023-07-20T03:21:53;3.00;;;1.93;;
8317;SDS011;4196;48.926;8.964;2023-07-20T03:24:40;3.80;;;1.80;;
8317;SDS011;4196;48.926;8.964;2023-07-20T03:27:27;2.70;;;2.00;;
8317;SDS011;4196;48.926;8.964;2023-07-20T03:30:16;2.20;;;1.70;;
8317;SDS011;4196;48.926;8.964;2023-07-20T03:33:03;3.30;;;1.90;;
8317;SDS011;4196;48.926;8.964;2023-07-20T03:35:50;3.23;;;2.10;;
8317;SDS011;4196;48.926;8.964;2023-07-20T03:38:36;2.70;;;1.80;;
8317;SDS011;4196;48.926;8.964;2023-07-20T03:41:22;2.63;;;1.77;;
8317;SDS011;4196;48.926;8.964;2023-07-20T03:44:09;5.30;;;1.90;;
8317;SDS011;4196;48.926;8.964;2023-07-20T03:46:55;3.27;;;2.10;;
8317;SDS011;4196;48.926;8.964;2023-07-20T03:49:42;3.63;;;1.90;;
8317;SDS011;4196;48.926;8.964;2023-07-20T03:52:28;2.47;;;1.90;;
8317;SDS011;4196;48.926;8.964;2023-07-20T03:55:15;3.07;;;2.03;;
8317;SDS011;4196;48.926;8.964;2023-07-20T03:58:01;2.73;;;1.80;;
8317;SDS011;4196;48.926;8.964;2023-07-20T04:00:48;5.13;;;2.13;;
8317;SDS011;4196;48.926;8.964;2023-07-20T04:03:36;3.13;;;2.23;;
8317;SDS011;4196;48.926;8.964;2023-07-20T04:06:23;2.90;;;1.93;;
8317;SDS011;4196;48.926;8.964;2023-07-20T04:09:10;4.13;;;2.10;;
8317;SDS011;4196;48.926;8.964;2023-07-20T04:11:57;4.67;;;2.37;;
8317;SDS011;4196;48.926;8.964;2023-07-20T04:14:44;5.27;;;2.57;;
8317;SDS011;4196;48.926;8.964;2023-07-20T04:17:30;3.30;;;2.10;;
8317;SDS011;4196;48.926;8.964;2023-07-20T04:20:16;2.20;;;1.80;;
8317;SDS011;4196;48.926;8.964;2023-07-20T04:23:04;5.23;;;2.03;;
8317;SDS011;4196;48.926;8.964;2023-07-20T04:25:51;5.47;;;2.60;;
8317;SDS011;4196;48.926;8.964;2023-07-20T04:28:38;3.13;;;2.27;;
8317;SDS011;4196;48.926;8.964;2023-07-20T04:31:26;3.80;;;1.97;;
8317;SDS011;4196;48.926;8.964;2023-07-20T04:34:12;3.30;;;2.30;;
8317;SDS011;4196;48.926;8.964;2023-07-20T04:37:00;2.23;;;1.97;;
8317;SDS011;4196;48.926;8.964;2023-07-20T04:39:46;4.30;;;2.13;;
8317;SDS011;4196;48.926;8.964;2023-07-20T04:42:33;2.30;;;2.10;;
8317;SDS011;4196;48.926;8.964;2023-07-20T04:45:19;3.57;;;2.17;;
8317;SDS011;4196;48.926;8.964;2023-07-20T04:48:08;2.57;;;2.03;;
8317;SDS011;4196;48.926;8.964;2023-07-20T04:50:59;3.67;;;2.00;;
8317;SDS011;4196;48.926;8.964;2023-07-20T04:53:46;2.40;;;1.80;;
8317;SDS011;4196;48.926;8.964;2023-07-20T04:56:33;5.07;;;2.27;;
8317;SDS011;4196;48.926;8.964;2023-07-20T04:59:23;3.93;;;2.00;;
8317;SDS011;4196;48.926;8.964;2023-07-20T05:02:10;2.73;;;2.30;;
8317;SDS011;4196;48.926;8.964;2023-07-20T05:04:57;2.57;;;2.00;;
8317;SDS011;4196;48.926;8.964;2023-07-20T05:07:43;2.33;;;1.77;;
8317;SDS011;4196;48.926;8.964;2023-07-20T05:10:29;2.57;;;1.83;;
8317;SDS011;4196;48.926;8.964;2023-07-20T05:13:15;2.33;;;1.90;;
8317;SDS011;4196;48.926;8.964;2023-07-20T05:16:02;2.03;;;1.80;;
8317;SDS011;4196;48.926;8.964;2023-07-20T05:18:50;4.63;;;2.20;;
8317;SDS011;4196;48.926;8.964;2023-07-20T05:21:37;2.93;;;1.97;;
8317;SDS011;4196;48.926;8.964;2023-07-20T05:24:24;3.17;;;1.97;;
8317;SDS011;4196;48.926;8.964;2023-07-20T05:27:10;3.43;;;1.87;;
8317;SDS011;4196;48.926;8.964;2023-07-20T05:29:57;2.33;;;1.80;;
8317;SDS011;4196;48.926;8.964;2023-07-20T05:32:43;2.27;;;2.07;;
8317;SDS011;4196;48.926;8.964;2023-07-20T05:35:31;2.30;;;1.60;;
8317;SDS011;4196;48.926;8.964;2023-07-20T05:38:18;4.33;;;1.80;;
8317;SDS011;4196;48.926;8.964;2023-07-20T05:41:05;6.27;;;2.03;;
8317;SDS011;4196;48.926;8.964;2023-07-20T05:43:51;3.40;;;2.00;;
8317;SDS011;4196;48.926;8.964;2023-07-20T05:46:38;2.93;;;1.80;;
8317;SDS011;4196;48.926;8.964;2023-07-20T05:49:42;1.70;;;1.50;;
8317;SDS011;4196;48.926;8.964;2023-07-20T05:52:29;2.27;;;2.00;;
8317;SDS011;4196;48.926;8.964;2023-07-20T05:55:15;3.80;;;2.20;;
8317;SDS011;4196;48.926;8.964;2023-07-20T05:58:02;4.15;;;2.15;;
8317;SDS011;4196;48.926;8.964;2023-07-20T06:00:50;3.40;;;1.90;;
8317;SDS011;4196;48.926;8.964;2023-07-20T06:03:36;1.92;;;1.67;;
8317;SDS011;4196;48.926;8.964;2023-07-20T06:06:23;3.67;;;2.00;;
8317;SDS011;4196;48.926;8.964;2023-07-20T06:09:10;3.38;;;2.03;;
8317;SDS011;4196;48.926;8.964;2023-07-20T06:11:58;2.95;;;1.88;;
8317;SDS011;4196;48.926;8.964;2023-07-20T06:14:45;3.65;;;1.90;;
8317;SDS011;4196;48.926;8.964;2023-07-20T06:17:32;2.53;;;1.80;;
8317;SDS011;4196;48.926;8.964;2023-07-20T06:20:19;3.23;;;2.10;;
8317;SDS011;4196;48.926;8.964;2023-07-20T06:23:05;3.10;;;1.70;;
8317;SDS011;4196;48.926;8.964;2023-07-20T06:25:51;2.10;;;1.57;;
8317;SDS011;4196;48.926;8.964;2023-07-20T06:28:38;3.70;;;1.57;;
8317;SDS011;4196;48.926;8.964;2023-07-20T06:31:24;2.37;;;1.93;;
8317;SDS011;4196;48.926;8.964;2023-07-20T06:34:10;3.83;;;1.77;;
8317;SDS011;4196;48.926;8.964;2023-07-20T06:36:56;4.87;;;1.70;;
8317;SDS011;4196;48.926;8.964;2023-07-20T06:39:43;2.57;;;1.80;;
8317;SDS011;4196;48.926;8.964;2023-07-20T06:42:33;3.10;;;1.70;;
8317;SDS011;4196;48.926;8.964;2023-07-20T06:45:22;1.90;;;1.60;;
8317;SDS011;4196;48.926;8.964;2023-07-20T06:48:08;2.07;;;1.83;;
8317;SDS011;4196;48.926;8.964;2023-07-20T06:50:55;4.90;;;2.07;;
8317;SDS011;4196;48.926;8.964;2023-07-20T06:53:41;5.07;;;1.60;;
8317;SDS011;4196;48.926;8.964;2023-07-20T06:56:28;3.07;;;2.73;;
8317;SDS011;4196;48.926;8.964;2023-07-20T06:59:18;2.83;;;2.03;;
8317;SDS011;4196;48.926;8.964;2023-07-20T07:02:05;3.13;;;1.80;;
8317;SDS011;4196;48.926;8.964;2023-07-20T07:04:51;4.57;;;1.80;;
8317;SDS011;4196;48.926;8.964;2023-07-20T07:07:46;3.53;;;2.10;;
8317;SDS011;4196;48.926;8.964;2023-07-20T07:10:32;4.27;;;2.00;;
8317;SDS011;4196;48.926;8.964;2023-07-20T07:13:21;4.67;;;2.20;;
8317;SDS011;4196;48.926;8.964;2023-07-20T07:16:08;3.87;;;1.77;;
8317;SDS011;4196;48.926;8.964;2023-07-20T07:18:54;2.87;;;2.20;;
8317;SDS011;4196;48.926;8.964;2023-07-20T07:21:45;3.83;;;2.80;;
8317;SDS011;4196;48.926;8.964;2023-07-20T07:24:32;2.33;;;2.10;;
8317;SDS011;4196;48.926;8.964;2023-07-20T07:27:22;3.20;;;1.80;;
8317;SDS011;4196;48.926;8.964;2023-07-20T07:30:08;4.07;;;2.10;;
8317;SDS011;4196;48.926;8.964;2023-07-20T07:32:55;2.10;;;1.53;;
8317;SDS011;4196;48.926;8.964;2023-07-20T07:35:41;5.33;;;2.00;;
8317;SDS011;4196;48.926;8.964;2023-07-20T07:38:28;2.57;;;1.57;;
8317;SDS011;4196;48.926;8.964;2023-07-20T07:41:34;6.40;;;2.33;;
8317;SDS011;4196;48.926;8.964;2023-07-20T07:44:20;3.80;;;1.70;;
8317;SDS011;4196;48.926;8.964;2023-07-20T07:47:07;2.83;;;2.03;;
8317;SDS011;4196;48.926;8.964;2023-07-20T07:49:54;4.00;;;1.87;;
8317;SDS011;4196;48.926;8.964;2023-07-20T07:52:40;6.23;;;2.10;;
8317;SDS011;4196;48.926;8.964;2023-07-20T07:55:26;9.90;;;2.10;;
8317;SDS011;4196;48.926;8.964;2023-07-20T07:58:14;2.80;;;1.83;;
8317;SDS011;4196;48.926;8.964;2023-07-20T08:01:04;2.10;;;1.53;;
8317;SDS011;4196;48.926;8.964;2023-07-20T08:03:51;6.57;;;2.03;;
8317;SDS011;4196;48.926;8.964;2023-07-20T08:06:37;4.10;;;1.90;;
8317;SDS011;4196;48.926;8.964;2023-07-20T08:09:23;3.87;;;1.90;;
8317;SDS011;4196;48.926;8.964;2023-07-20T08:12:10;4.47;;;1.87;;
8317;SDS011;4196;48.926;8.964;2023-07-20T08:14:57;4.40;;;2.00;;
8317;SDS011;4196;48.926;8.964;2023-07-20T08:17:43;4.40;;;2.27;;
8317;SDS011;4196;48.926;8.964;2023-07-20T08:20:30;2.97;;;2.00;;
8317;SDS011;4196;48.926;8.964;2023-07-20T08:23:18;6.07;;;2.10;;
8317;SDS011;4196;48.926;8.964;2023-07-20T08:26:04;5.17;;;2.00;;
8317;SDS011;4196;48.926;8.964;2023-07-20T08:28:50;2.80;;;1.83;;
8317;SDS011;4196;48.926;8.964;2023-07-20T08:31:37;4.50;;;2.03;;
8317;SDS011;4196;48.926;8.964;2023-07-20T08:34:24;5.53;;;2.00;;
8317;SDS011;4196;48.926;8.964;2023-07-20T08:37:17;4.90;;;2.37;;
8317;SDS011;4196;48.926;8.964;2023-07-20T08:40:04;5.17;;;1.90;;
8317;SDS011;4196;48.926;8.964;2023-07-20T08:42:50;2.83;;;1.70;;
8317;SDS011;4196;48.926;8.964;2023-07-20T08:45:38;3.00;;;1.70;;
8317;SDS011;4196;48.926;8.964;2023-07-20T08:48:26;2.67;;;1.90;;
8317;SDS011;4196;48.926;8.964;2023-07-20T08:51:13;1.70;;;1.60;;
8317;SDS011;4196;48.926;8.964;2023-07-20T08:54:02;3.40;;;1.60;;
8317;SDS011;4196;48.926;8.964;2023-07-20T08:56:48;2.50;;;1.73;;
8317;SDS011;4196;48.926;8.964;2023-07-20T08:59:36;2.70;;;1.60;;
8317;SDS011;4196;48.926;8.964;2023-07-20T09:02:24;3.07;;;1.80;;
8317;SDS011;4196;48.926;8.964;2023-07-20T09:05:13;4.63;;;1.80;;
8317;SDS011;4196;48.926;8.964;2023-07-20T09:08:00;5.17;;;1.90;;
8317;SDS011;4196;48.926;8.964;2023-07-20T09:10:49;2.53;;;1.60;;
8317;SDS011;4196;48.926;8.964;2023-07-20T09:13:36;2.23;;;1.70;;
8317;SDS011;4196;48.926;8.964;2023-07-20T09:16:24;4.23;;;1.63;;
8317;SDS011;4196;48.926;8.964;2023-07-20T09:19:12;2.50;;;1.80;;
8317;SDS011;4196;48.926;8.964;2023-07-20T09:22:01;2.37;;;1.53;;
8317;SDS011;4196;48.926;8.964;2023-07-20T09:24:47;3.50;;;1.50;;
8317;SDS011;4196;48.926;8.964;2023-07-20T09:27:37;8.07;;;1.50;;
8317;SDS011;4196;48.926;8.964;2023-07-20T09:30:25;4.00;;;2.17;;
8317;SDS011;4196;48.926;8.964;2023-07-20T09:33:23;1.87;;;1.73;;
8317;SDS011;4196;48.926;8.964;2023-07-20T09:36:14;3.53;;;1.60;;
8317;SDS011;4196;48.926;8.964;2023-07-20T09:39:21;2.00;;;1.60;;
8317;SDS011;4196;48.926;8.964;2023-07-20T09:42:11;2.50;;;1.63;;
8317;SDS011;4196;48.926;8.964;2023-07-20T09:45:01;2.10;;;1.27;;
8317;SDS011;4196;48.926;8.964;2023-07-20T09:47:48;2.53;;;1.70;;
8317;SDS011;4196;48.926;8.964;2023-07-20T09:50:56;3.87;;;1.67;;
8317;SDS011;4196;48.926;8.964;2023-07-20T09:53:43;3.90;;;1.70;;
8317;SDS011;4196;48.926;8.964;2023-07-20T09:56:30;2.43;;;1.40;;
8317;SDS011;4196;48.926;8.964;2023-07-20T09:59:19;2.27;;;1.40;;
8317;SDS011;4196;48.926;8.964;2023-07-20T10:02:18;1.97;;;1.60;;
8317;SDS011;4196;48.926;8.964;2023-07-20T10:05:07;3.30;;;1.40;;
8317;SDS011;4196;48.926;8.964;2023-07-20T10:07:56;2.97;;;1.47;;
8317;SDS011;4196;48.926;8.964;2023-07-20T10:10:46;4.40;;;1.63;;
8317;SDS011;4196;48.926;8.964;2023-07-20T10:13:36;4.03;;;1.40;;
8317;SDS011;4196;48.926;8.964;2023-07-20T10:16:31;1.67;;;1.30;;
8317;SDS011;4196;48.926;8.964;2023-07-20T10:22:14;1.60;;;1.50;;
8317;SDS011;4196;48.926;8.964;2023-07-20T10:25:04;2.00;;;1.50;;
8317;SDS011;4196;48.926;8.964;2023-07-20T10:27:51;2.10;;;1.60;;
8317;SDS011;4196;48.926;8.964;2023-07-20T10:30:38;3.50;;;1.60;;
8317;SDS011;4196;48.926;8.964;2023-07-20T10:33:25;1.27;;;1.17;;
8317;SDS011;4196;48.926;8.964;2023-07-20T10:36:12;1.77;;;1.30;;
8317;SDS011;4196;48.926;8.964;2023-07-20T10:38:59;3.10;;;1.27;;
8317;SDS011;4196;48.926;8.964;2023-07-20T10:41:47;1.80;;;1.20;;
8317;SDS011;4196;48.926;8.964;2023-07-20T10:44:33;1.10;;;1.10;;
8317;SDS011;4196;48.926;8.964;2023-07-20T10:47:20;1.50;;;1.40;;
8317;SDS011;4196;48.926;8.964;2023-07-20T10:50:06;2.50;;;1.47;;
8317;SDS011;4196;48.926;8.964;2023-07-20T10:56:20;2.67;;;1.53;;
8317;SDS011;4196;48.926;8.964;2023-07-20T10:59:19;2.40;;;1.30;;
8317;SDS011;4196;48.926;8.964;2023-07-20T11:02:07;3.07;;;1.60;;
8317;SDS011;4196;48.926;8.964;2023-07-20T11:04:55;3.37;;;1.73;;
8317;SDS011;4196;48.926;8.964;2023-07-20T11:07:42;3.80;;;1.77;;
8317;SDS011;4196;48.926;8.964;2023-07-20T11:10:31;1.53;;;1.40;;
8317;SDS011;4196;48.926;8.964;2023-07-20T11:13:24;2.80;;;1.40;;
8317;SDS011;4196;48.926;8.964;2023-07-20T11:16:12;2.00;;;1.30;;
8317;SDS011;4196;48.926;8.964;2023-07-20T11:18:58;1.93;;;1.43;;
8317;SDS011;4196;48.926;8.964;2023-07-20T11:21:46;4.53;;;1.20;;
8317;SDS011;4196;48.926;8.964;2023-07-20T11:29:25;6.80;;;1.63;;
8317;SDS011;4196;48.926;8.964;2023-07-20T11:32:22;1.67;;;1.20;;
8317;SDS011;4196;48.926;8.964;2023-07-20T11:35:12;1.58;;;1.10;;
8317;SDS011;4196;48.926;8.964;2023-07-20T11:37:59;2.00;;;1.50;;
8317;SDS011;4196;48.926;8.964;2023-07-20T11:40:46;2.60;;;1.38;;
8317;SDS011;4196;48.926;8.964;2023-07-20T11:43:32;1.50;;;1.40;;
8317;SDS011;4196;48.926;8.964;2023-07-20T11:46:19;1.40;;;1.30;;
8317;SDS011;4196;48.926;8.964;2023-07-20T11:49:06;4.15;;;1.60;;
8317;SDS011;4196;48.926;8.964;2023-07-20T11:51:53;3.90;;;1.90;;
8317;SDS011;4196;48.926;8.964;2023-07-20T11:54:39;3.60;;;2.17;;
8317;SDS011;4196;48.926;8.964;2023-07-20T11:57:31;2.70;;;1.58;;
8317;SDS011;4196;48.926;8.964;2023-07-20T12:00:17;1.48;;;1.30;;
8317;SDS011;4196;48.926;8.964;2023-07-20T12:03:04;2.90;;;1.50;;
8317;SDS011;4196;48.926;8.964;2023-07-20T12:05:55;3.08;;;1.50;;
8317;SDS011;4196;48.926;8.964;2023-07-20T12:08:46;6.85;;;1.65;;
8317;SDS011;4196;48.926;8.964;2023-07-20T12:11:37;2.85;;;1.30;;
8317;SDS011;4196;48.926;8.964;2023-07-20T12:14:25;2.28;;;1.45;;
8317;SDS011;4196;48.926;8.964;2023-07-20T12:17:11;1.50;;;1.05;;
8317;SDS011;4196;48.926;8.964;2023-07-20T12:19:59;3.05;;;1.20;;
8317;SDS011;4196;48.926;8.964;2023-07-20T12:22:45;2.13;;;1.55;;
8317;SDS011;4196;48.926;8.964;2023-07-20T12:25:45;2.47;;;1.50;;
8317;SDS011;4196;48.926;8.964;2023-07-20T12:28:33;2.88;;;1.33;;
8317;SDS011;4196;48.926;8.964;2023-07-20T12:31:25;2.63;;;1.30;;
8317;SDS011;4196;48.926;8.964;2023-07-20T12:34:13;1.30;;;1.20;;
8317;SDS011;4196;48.926;8.964;2023-07-20T12:37:02;2.38;;;1.50;;
8317;SDS011;4196;48.926;8.964;2023-07-20T12:39:49;4.22;;;1.52;;
8317;SDS011;4196;48.926;8.964;2023-07-20T12:42:36;1.77;;;1.35;;
8317;SDS011;4196;48.926;8.964;2023-07-20T12:45:22;1.33;;;1.10;;
8317;SDS011;4196;48.926;8.964;2023-07-20T12:48:08;1.73;;;1.60;;
8317;SDS011;4196;48.926;8.964;2023-07-20T12:50:55;2.47;;;1.38;;
8317;SDS011;4196;48.926;8.964;2023-07-20T12:53:41;1.58;;;1.40;;
8317;SDS011;4196;48.926;8.964;2023-07-20T12:56:28;2.60;;;1.40;;
8317;SDS011;4196;48.926;8.964;2023-07-20T12:59:17;2.20;;;1.40;;
8317;SDS011;4196;48.926;8.964;2023-07-20T13:02:04;1.48;;;1.38;;
8317;SDS011;4196;48.926;8.964;2023-07-20T13:04:51;1.30;;;1.20;;
8317;SDS011;4196;48.926;8.964;2023-07-20T13:07:38;1.30;;;1.20;;
8317;SDS011;4196;48.926;8.964;2023-07-20T13:10:28;1.33;;;1.23;;
8317;SDS011;4196;48.926;8.964;2023-07-20T13:13:15;2.97;;;1.33;;
8317;SDS011;4196;48.926;8.964;2023-07-20T13:16:01;2.33;;;1.30;;
8317;SDS011;4196;48.926;8.964;2023-07-20T13:18:48;3.47;;;1.50;;
8317;SDS011;4196;48.926;8.964;2023-07-20T13:21:35;1.95;;;1.30;;
8317;SDS011;4196;48.926;8.964;2023-07-20T13:24:23;1.98;;;1.52;;
8317;SDS011;4196;48.926;8.964;2023-07-20T13:27:09;1.60;;;1.20;;
8317;SDS011;4196;48.926;8.964;2023-07-20T13:29:57;2.13;;;1.10;;
8317;SDS011;4196;48.926;8.964;2023-07-20T13:32:44;1.50;;;1.38;;
8317;SDS011;4196;48.926;8.964;2023-07-20T13:35:31;2.75;;;1.33;;
8317;SDS011;4196;48.926;8.964;2023-07-20T13:38:34;1.17;;;1.08;;
8317;SDS011;4196;48.926;8.964;2023-07-20T13:41:21;3.10;;;1.40;;
8317;SDS011;4196;48.926;8.964;2023-07-20T13:44:08;2.40;;;1.33;;
8317;SDS011;4196;48.926;8.964;2023-07-20T13:46:54;2.28;;;1.60;;
8317;SDS011;4196;48.926;8.964;2023-07-20T13:50:00;1.70;;;1.40;;
8317;SDS011;4196;48.926;8.964;2023-07-20T13:52:49;1.67;;;1.20;;
8317;SDS011;4196;48.926;8.964;2023-07-20T13:55:36;1.67;;;1.40;;
8317;SDS011;4196;48.926;8.964;2023-07-20T13:58:27;1.70;;;1.08;;
8317;SDS011;4196;48.926;8.964;2023-07-20T14:01:14;1.20;;;1.10;;
8317;SDS011;4196;48.926;8.964;2023-07-20T14:04:15;0.75;;;0.75;;
8317;SDS011;4196;48.926;8.964;2023-07-20T14:07:01;3.22;;;2.33;;
8317;SDS011;4196;48.926;8.964;2023-07-20T14:09:48;4.05;;;1.55;;
8317;SDS011;4196;48.926;8.964;2023-07-20T14:12:37;1.15;;;1.08;;
8317;SDS011;4196;48.926;8.964;2023-07-20T14:15:24;2.00;;;1.10;;
8317;SDS011;4196;48.926;8.964;2023-07-20T14:18:10;0.95;;;0.88;;
8317;SDS011;4196;48.926;8.964;2023-07-20T14:20:57;2.55;;;1.58;;
8317;SDS011;4196;48.926;8.964;2023-07-20T14:23:46;1.65;;;1.25;;
8317;SDS011;4196;48.926;8.964;2023-07-20T14:26:34;1.10;;;1.00;;
8317;SDS011;4196;48.926;8.964;2023-07-20T14:29:21;1.70;;;1.17;;
8317;SDS011;4196;48.926;8.964;2023-07-20T14:32:12;1.10;;;1.00;;
8317;SDS011;4196;48.926;8.964;2023-07-20T14:34:58;3.25;;;1.20;;
8317;SDS011;4196;48.926;8.964;2023-07-20T14:37:45;1.35;;;1.20;;
8317;SDS011;4196;48.926;8.964;2023-07-20T14:40:33;2.63;;;1.25;;
8317;SDS011;4196;48.926;8.964;2023-07-20T14:43:19;1.42;;;1.20;;
8317;SDS011;4196;48.926;8.964;2023-07-20T14:46:06;2.15;;;1.55;;
8317;SDS011;4196;48.926;8.964;2023-07-20T14:48:52;1.60;;;1.50;;
8317;SDS011;4196;48.926;8.964;2023-07-20T14:51:39;2.92;;;1.55;;
8317;SDS011;4196;48.926;8.964;2023-07-20T14:54:29;1.02;;;1.00;;
8317;SDS011;4196;48.926;8.964;2023-07-20T14:57:15;1.08;;;0.98;;
8317;SDS011;4196;48.926;8.964;2023-07-20T15:00:02;2.33;;;1.30;;
8317;SDS011;4196;48.926;8.964;2023-07-20T15:02:53;1.20;;;1.10;;
8317;SDS011;4196;48.926;8.964;2023-07-20T15:05:42;2.05;;;1.33;;
8317;SDS011;4196;48.926;8.964;2023-07-20T15:08:29;1.20;;;1.10;;
8317;SDS011;4196;48.926;8.964;2023-07-20T15:11:16;1.10;;;1.00;;
8317;SDS011;4196;48.926;8.964;2023-07-20T15:14:03;1.80;;;1.00;;
8317;SDS011;4196;48.926;8.964;2023-07-20T15:16:49;1.13;;;1.00;;
8317;SDS011;4196;48.926;8.964;2023-07-20T15:19:35;2.22;;;1.02;;
8317;SDS011;4196;48.926;8.964;2023-07-20T15:22:22;2.03;;;1.30;;
8317;SDS011;4196;48.926;8.964;2023-07-20T15:25:09;1.52;;;1.27;;
8317;SDS011;4196;48.926;8.964;2023-07-20T15:27:58;2.22;;;1.10;;
8317;SDS011;4196;48.926;8.964;2023-07-20T15:30:44;1.30;;;1.20;;
8317;SDS011;4196;48.926;8.964;2023-07-20T15:33:34;1.35;;;1.00;;
8317;SDS011;4196;48.926;8.964;2023-07-20T15:36:21;0.90;;;0.90;;
8317;SDS011;4196;48.926;8.964;2023-07-20T15:39:10;1.20;;;1.10;;
8317;SDS011;4196;48.926;8.964;2023-07-20T15:41:57;1.30;;;1.20;;
8317;SDS011;4196;48.926;8.964;2023-07-20T15:44:43;1.65;;;1.35;;
8317;SDS011;4196;48.926;8.964;2023-07-20T15:47:29;1.48;;;1.17;;
8317;SDS011;4196;48.926;8.964;2023-07-20T15:50:16;1.42;;;1.33;;
8317;SDS011;4196;48.926;8.964;2023-07-20T15:53:06;1.38;;;1.00;;
8317;SDS011;4196;48.926;8.964;2023-07-20T15:55:53;1.10;;;1.10;;
8317;SDS011;4196;48.926;8.964;2023-07-20T15:58:42;2.25;;;1.30;;
8317;SDS011;4196;48.926;8.964;2023-07-20T16:01:29;2.22;;;1.35;;
8317;SDS011;4196;48.926;8.964;2023-07-20T16:04:17;1.95;;;1.30;;
8317;SDS011;4196;48.926;8.964;2023-07-20T16:07:03;1.65;;;1.55;;
8317;SDS011;4196;48.926;8.964;2023-07-20T16:09:53;3.17;;;1.20;;
8317;SDS011;4196;48.926;8.964;2023-07-20T16:12:39;1.42;;;1.33;;
8317;SDS011;4196;48.926;8.964;2023-07-20T16:15:28;2.47;;;1.10;;
8317;SDS011;4196;48.926;8.964;2023-07-20T16:18:17;1.55;;;1.33;;
8317;SDS011;4196;48.926;8.964;2023-07-20T16:21:03;1.10;;;1.00;;
8317;SDS011;4196;48.926;8.964;2023-07-20T16:23:50;0.85;;;0.85;;
8317;SDS011;4196;48.926;8.964;2023-07-20T16:26:37;1.58;;;1.13;;
8317;SDS011;4196;48.926;8.964;2023-07-20T16:29:28;1.20;;;1.10;;
8317;SDS011;4196;48.926;8.964;2023-07-20T16:32:15;1.42;;;1.20;;
8317;SDS011;4196;48.926;8.964;2023-07-20T16:35:01;1.23;;;1.10;;
8317;SDS011;4196;48.926;8.964;2023-07-20T16:37:51;2.30;;;1.50;;
8317;SDS011;4196;48.926;8.964;2023-07-20T16:40:41;1.38;;;1.15;;
8317;SDS011;4196;48.926;8.964;2023-07-20T16:43:30;1.42;;;0.90;;
8317;SDS011;4196;48.926;8.964;2023-07-20T16:46:19;5.50;;;1.45;;
8317;SDS011;4196;48.926;8.964;2023-07-20T16:49:08;1.50;;;1.10;;
8317;SDS011;4196;48.926;8.964;2023-07-20T16:51:55;1.38;;;1.20;;
8317;SDS011;4196;48.926;8.964;2023-07-20T16:54:42;1.35;;;1.15;;
8317;SDS011;4196;48.926;8.964;2023-07-20T16:57:28;1.02;;;1.00;;
8317;SDS011;4196;48.926;8.964;2023-07-20T17:00:15;1.40;;;1.17;;
8317;SDS011;4196;48.926;8.964;2023-07-20T17:03:03;3.17;;;1.27;;
8317;SDS011;4196;48.926;8.964;2023-07-20T17:05:50;2.58;;;1.20;;
8317;SDS011;4196;48.926;8.964;2023-07-20T17:08:36;1.20;;;1.10;;
8317;SDS011;4196;48.926;8.964;2023-07-20T17:11:23;1.20;;;1.10;;
8317;SDS011;4196;48.926;8.964;2023-07-20T17:14:09;1.25;;;1.10;;
8317;SDS011;4196;48.926;8.964;2023-07-20T17:16:57;2.05;;;1.00;;
8317;SDS011;4196;48.926;8.964;2023-07-20T17:19:43;2.35;;;1.20;;
8317;SDS011;4196;48.926;8.964;2023-07-20T17:22:29;1.10;;;1.10;;
8317;SDS011;4196;48.926;8.964;2023-07-20T17:25:15;1.17;;;1.08;;
8317;SDS011;4196;48.926;8.964;2023-07-20T17:28:05;3.80;;;1.10;;
8317;SDS011;4196;48.926;8.964;2023-07-20T17:30:57;1.73;;;1.30;;
8317;SDS011;4196;48.926;8.964;2023-07-20T17:33:46;1.48;;;1.30;;
8317;SDS011;4196;48.926;8.964;2023-07-20T17:36:32;1.55;;;1.25;;
8317;SDS011;4196;48.926;8.964;2023-07-20T17:39:22;1.52;;;1.38;;
8317;SDS011;4196;48.926;8.964;2023-07-20T17:42:28;1.42;;;1.17;;